Hlavní strana
METAR-TAF:

METAR-TAF

Letiště :

Luleå, Švédsko

zeměpisná šířka: 65-33N, zeměpisná délka: 022-08E, výška: 17 m

Aktuální stav počasí

Zpráva byla vytvořena před 44 minutami, v 11:50 UTC
Jihojihovýchodní vítr 6 kt, proměnlivý mezi východojihovýchodním a jihojihozápadním
Teplota 16°C
Vlhkost vzduchu 48%
Tlak 1019 hPa
Viditelnost 10 km a více
Žádná oblačnost pod 1500 m, nevyskytují se cumulonimby.

METAR: ESPA 231150Z 15006KT 120V200 CAVOK 16/05 Q1019

Čas: 14:34 (12:34 UTC)

Předpověď počasí

Zpráva byla vytvořena před 4 hodinami a 29 minutami, v 08:05 UTC
Předpověď platná od 23 v 09 UTC do 23 v 18 UTC
Západojihozápadní vítr 5 kt
Viditelnost 10 km a více
Žádná oblačnost pod 1500 m, nevyskytují se cumulonimby.

TAF: ESPA 230805Z 2309/2318 25005KT CAVOK RMK MIL

Stav a předpovědi počasí z více než 4 000 letišť (zprávy METAR a TAF).

Červené a žluté tečky na mapě představují dostupné meteorologické stanice.

Když kurzor umístíte na tečku, zobrazí se název stanice.

Pak kliknutím zobrazíte stav a předpověď počasí.

Chcete-li změnit mapu, kliknutím na zelené tlačítko se znaménkem +mapu přiblížíte, kliknutím na zelené tlačítko se znaménkem – mapu oddálíte a kliknutím na zelené šipky přejdete na sousední mapy.


METAR-TAF: